﻿<?xml version="1.0" encoding="UTF-8" standalone="no" ?>
<gpx xmlns="http://www.topografix.com/GPX/1/1" creator="CompeGPS" version="1.1" xmlns:xsi="http://www.w3.org/2001/XMLSchema-instance" xsi:schemaLocation="http://www.topografix.com/GPX/1/1 http://www.topografix.com/GPX/1/1/gpx.xsd http://www.garmin.com/xmlschemas/GpxExtensions/v3 http://www.garmin.com/xmlschemas/GpxExtensionsv3.xsd http://www.garmin.com/xmlschemas/TrackPointExtension/v1 http://www.garmin.com/xmlschemas/TrackPointExtensionv1.xsd" xmlns:gpxtpx="http://www.garmin.com/xmlschemas/TrackPointExtension/v1">
  <metadata>
    <link href="http://www.compegps.com">
      <text>CompeGPS TEAM, SL</text>
    </link>
    <time>2019-05-04T22:38:03Z</time>
    <bounds maxlat="39.980081" maxlon="-6.491491" minlat="39.966041" minlon="-6.527660"/>
  </metadata>
  <trk>
    <name>SL-CC 67 Camino del Rincón del Obispo</name>
    <trkseg>
      <trkpt lat="39.980081" lon="-6.527660">
        <ele>244.4</ele>
        <time>2019-05-01T06:16:34Z</time>
      </trkpt>
      <trkpt lat="39.980066" lon="-6.527629">
        <ele>245.0</ele>
        <time>2019-05-01T06:16:36Z</time>
      </trkpt>
      <trkpt lat="39.980040" lon="-6.527623">
        <ele>245.0</ele>
        <time>2019-05-01T06:16:39Z</time>
      </trkpt>
      <trkpt lat="39.979978" lon="-6.527614">
        <ele>244.7</ele>
        <time>2019-05-01T06:16:45Z</time>
      </trkpt>
      <trkpt lat="39.979829" lon="-6.527591">
        <ele>241.5</ele>
        <time>2019-05-01T06:17:01Z</time>
      </trkpt>
      <trkpt lat="39.978307" lon="-6.527342">
        <ele>221.0</ele>
        <time>2019-05-01T06:19:35Z</time>
      </trkpt>
      <trkpt lat="39.978101" lon="-6.527298">
        <ele>221.7</ele>
        <time>2019-05-01T06:19:56Z</time>
      </trkpt>
      <trkpt lat="39.978071" lon="-6.527243">
        <ele>222.1</ele>
        <time>2019-05-01T06:20:01Z</time>
      </trkpt>
      <trkpt lat="39.977743" lon="-6.527190">
        <ele>222.9</ele>
        <time>2019-05-01T06:20:34Z</time>
      </trkpt>
      <trkpt lat="39.977424" lon="-6.527138">
        <ele>223.7</ele>
        <time>2019-05-01T06:21:07Z</time>
      </trkpt>
      <trkpt lat="39.976931" lon="-6.527055">
        <ele>225.2</ele>
        <time>2019-05-01T06:21:56Z</time>
      </trkpt>
      <trkpt lat="39.976859" lon="-6.527002">
        <ele>225.4</ele>
        <time>2019-05-01T06:22:05Z</time>
      </trkpt>
      <trkpt lat="39.976783" lon="-6.526993">
        <ele>225.7</ele>
        <time>2019-05-01T06:22:12Z</time>
      </trkpt>
      <trkpt lat="39.976687" lon="-6.526989">
        <ele>225.9</ele>
        <time>2019-05-01T06:22:22Z</time>
      </trkpt>
      <trkpt lat="39.976644" lon="-6.526985">
        <ele>226.0</ele>
        <time>2019-05-01T06:22:26Z</time>
      </trkpt>
      <trkpt lat="39.976567" lon="-6.526973">
        <ele>225.8</ele>
        <time>2019-05-01T06:22:34Z</time>
      </trkpt>
      <trkpt lat="39.976470" lon="-6.526947">
        <ele>225.7</ele>
        <time>2019-05-01T06:22:44Z</time>
      </trkpt>
      <trkpt lat="39.976374" lon="-6.526902">
        <ele>225.5</ele>
        <time>2019-05-01T06:22:54Z</time>
      </trkpt>
      <trkpt lat="39.976231" lon="-6.526804">
        <ele>225.4</ele>
        <time>2019-05-01T06:23:10Z</time>
      </trkpt>
      <trkpt lat="39.976182" lon="-6.526765">
        <ele>225.3</ele>
        <time>2019-05-01T06:23:16Z</time>
      </trkpt>
      <trkpt lat="39.976099" lon="-6.526708">
        <ele>225.3</ele>
        <time>2019-05-01T06:23:25Z</time>
      </trkpt>
      <trkpt lat="39.975917" lon="-6.526576">
        <ele>225.0</ele>
        <time>2019-05-01T06:23:46Z</time>
      </trkpt>
      <trkpt lat="39.975833" lon="-6.526502">
        <ele>224.8</ele>
        <time>2019-05-01T06:23:56Z</time>
      </trkpt>
      <trkpt lat="39.975754" lon="-6.526411">
        <ele>224.7</ele>
        <time>2019-05-01T06:24:07Z</time>
      </trkpt>
      <trkpt lat="39.975580" lon="-6.526215">
        <ele>224.6</ele>
        <time>2019-05-01T06:24:30Z</time>
      </trkpt>
      <trkpt lat="39.975499" lon="-6.526121">
        <ele>224.6</ele>
        <time>2019-05-01T06:24:41Z</time>
      </trkpt>
      <trkpt lat="39.975436" lon="-6.526072">
        <ele>224.6</ele>
        <time>2019-05-01T06:24:48Z</time>
      </trkpt>
      <trkpt lat="39.975380" lon="-6.525971">
        <ele>224.6</ele>
        <time>2019-05-01T06:24:58Z</time>
      </trkpt>
      <trkpt lat="39.975293" lon="-6.525673">
        <ele>224.6</ele>
        <time>2019-05-01T06:25:22Z</time>
      </trkpt>
      <trkpt lat="39.975166" lon="-6.525279">
        <ele>224.8</ele>
        <time>2019-05-01T06:25:55Z</time>
      </trkpt>
      <trkpt lat="39.975033" lon="-6.524827">
        <ele>225.2</ele>
        <time>2019-05-01T06:26:32Z</time>
      </trkpt>
      <trkpt lat="39.974914" lon="-6.524504">
        <ele>225.6</ele>
        <time>2019-05-01T06:27:00Z</time>
      </trkpt>
      <trkpt lat="39.974832" lon="-6.524251">
        <ele>225.9</ele>
        <time>2019-05-01T06:27:21Z</time>
      </trkpt>
      <trkpt lat="39.974780" lon="-6.524049">
        <ele>226.0</ele>
        <time>2019-05-01T06:27:37Z</time>
      </trkpt>
      <trkpt lat="39.974707" lon="-6.523796">
        <ele>226.0</ele>
        <time>2019-05-01T06:27:58Z</time>
      </trkpt>
      <trkpt lat="39.974538" lon="-6.523257">
        <ele>225.9</ele>
        <time>2019-05-01T06:28:43Z</time>
      </trkpt>
      <trkpt lat="39.974282" lon="-6.522673">
        <ele>224.7</ele>
        <time>2019-05-01T06:29:34Z</time>
      </trkpt>
      <trkpt lat="39.974093" lon="-6.522110">
        <ele>223.7</ele>
        <time>2019-05-01T06:30:21Z</time>
      </trkpt>
      <trkpt lat="39.973853" lon="-6.521407">
        <ele>223.4</ele>
        <time>2019-05-01T06:31:20Z</time>
      </trkpt>
      <trkpt lat="39.973716" lon="-6.520941">
        <ele>223.2</ele>
        <time>2019-05-01T06:31:59Z</time>
      </trkpt>
      <trkpt lat="39.973546" lon="-6.520333">
        <ele>224.2</ele>
        <time>2019-05-01T06:32:48Z</time>
      </trkpt>
      <trkpt lat="39.973434" lon="-6.519828">
        <ele>224.7</ele>
        <time>2019-05-01T06:33:29Z</time>
      </trkpt>
      <trkpt lat="39.973309" lon="-6.519112">
        <ele>224.0</ele>
        <time>2019-05-01T06:34:25Z</time>
      </trkpt>
      <trkpt lat="39.973261" lon="-6.518704">
        <ele>223.6</ele>
        <time>2019-05-01T06:34:57Z</time>
      </trkpt>
      <trkpt lat="39.973188" lon="-6.518257">
        <ele>223.3</ele>
        <time>2019-05-01T06:35:32Z</time>
      </trkpt>
      <trkpt lat="39.973088" lon="-6.517733">
        <ele>223.2</ele>
        <time>2019-05-01T06:36:13Z</time>
      </trkpt>
      <trkpt lat="39.973071" lon="-6.517531">
        <ele>223.0</ele>
        <time>2019-05-01T06:36:29Z</time>
      </trkpt>
      <trkpt lat="39.973090" lon="-6.517226">
        <ele>222.8</ele>
        <time>2019-05-01T06:36:52Z</time>
      </trkpt>
      <trkpt lat="39.973155" lon="-6.516744">
        <ele>222.3</ele>
        <time>2019-05-01T06:37:30Z</time>
      </trkpt>
      <trkpt lat="39.973244" lon="-6.516124">
        <ele>222.2</ele>
        <time>2019-05-01T06:38:18Z</time>
      </trkpt>
      <trkpt lat="39.973301" lon="-6.515740">
        <ele>222.2</ele>
        <time>2019-05-01T06:38:48Z</time>
      </trkpt>
      <trkpt lat="39.973362" lon="-6.515382">
        <ele>222.5</ele>
        <time>2019-05-01T06:39:16Z</time>
      </trkpt>
      <trkpt lat="39.973426" lon="-6.514980">
        <ele>223.0</ele>
        <time>2019-05-01T06:39:48Z</time>
      </trkpt>
      <trkpt lat="39.973485" lon="-6.514546">
        <ele>223.0</ele>
        <time>2019-05-01T06:40:22Z</time>
      </trkpt>
      <trkpt lat="39.973513" lon="-6.514345">
        <ele>223.0</ele>
        <time>2019-05-01T06:40:37Z</time>
      </trkpt>
      <trkpt lat="39.973486" lon="-6.513852">
        <ele>223.3</ele>
        <time>2019-05-01T06:41:15Z</time>
      </trkpt>
      <trkpt lat="39.973462" lon="-6.513419">
        <ele>223.8</ele>
        <time>2019-05-01T06:41:49Z</time>
      </trkpt>
      <trkpt lat="39.973452" lon="-6.513164">
        <ele>224.0</ele>
        <time>2019-05-01T06:42:08Z</time>
      </trkpt>
      <trkpt lat="39.973339" lon="-6.512676">
        <ele>224.8</ele>
        <time>2019-05-01T06:42:47Z</time>
      </trkpt>
      <trkpt lat="39.973212" lon="-6.512153">
        <ele>224.9</ele>
        <time>2019-05-01T06:43:29Z</time>
      </trkpt>
      <trkpt lat="39.973110" lon="-6.511693">
        <ele>224.8</ele>
        <time>2019-05-01T06:44:06Z</time>
      </trkpt>
      <trkpt lat="39.973032" lon="-6.511357">
        <ele>224.9</ele>
        <time>2019-05-01T06:44:33Z</time>
      </trkpt>
      <trkpt lat="39.972927" lon="-6.510930">
        <ele>225.0</ele>
        <time>2019-05-01T06:45:07Z</time>
      </trkpt>
      <trkpt lat="39.972832" lon="-6.510544">
        <ele>225.0</ele>
        <time>2019-05-01T06:45:39Z</time>
      </trkpt>
      <trkpt lat="39.972719" lon="-6.510084">
        <ele>224.8</ele>
        <time>2019-05-01T06:46:16Z</time>
      </trkpt>
      <trkpt lat="39.972627" lon="-6.509719">
        <ele>224.3</ele>
        <time>2019-05-01T06:46:45Z</time>
      </trkpt>
      <trkpt lat="39.972561" lon="-6.509498">
        <ele>223.8</ele>
        <time>2019-05-01T06:47:03Z</time>
      </trkpt>
      <trkpt lat="39.972427" lon="-6.509186">
        <ele>223.5</ele>
        <time>2019-05-01T06:47:31Z</time>
      </trkpt>
      <trkpt lat="39.972308" lon="-6.508921">
        <ele>223.7</ele>
        <time>2019-05-01T06:47:54Z</time>
      </trkpt>
      <trkpt lat="39.972140" lon="-6.508525">
        <ele>223.4</ele>
        <time>2019-05-01T06:48:29Z</time>
      </trkpt>
      <trkpt lat="39.971972" lon="-6.508108">
        <ele>222.8</ele>
        <time>2019-05-01T06:49:05Z</time>
      </trkpt>
      <trkpt lat="39.971792" lon="-6.507626">
        <ele>222.1</ele>
        <time>2019-05-01T06:49:46Z</time>
      </trkpt>
      <trkpt lat="39.971683" lon="-6.507307">
        <ele>222.2</ele>
        <time>2019-05-01T06:50:13Z</time>
      </trkpt>
      <trkpt lat="39.971593" lon="-6.507025">
        <ele>223.0</ele>
        <time>2019-05-01T06:50:37Z</time>
      </trkpt>
      <trkpt lat="39.971561" lon="-6.506895">
        <ele>223.3</ele>
        <time>2019-05-01T06:50:47Z</time>
      </trkpt>
      <trkpt lat="39.971548" lon="-6.506668">
        <ele>223.7</ele>
        <time>2019-05-01T06:51:04Z</time>
      </trkpt>
      <trkpt lat="39.971491" lon="-6.506290">
        <ele>224.4</ele>
        <time>2019-05-01T06:51:34Z</time>
      </trkpt>
      <trkpt lat="39.971455" lon="-6.506111">
        <ele>224.8</ele>
        <time>2019-05-01T06:51:48Z</time>
      </trkpt>
      <trkpt lat="39.971398" lon="-6.505817">
        <ele>225.3</ele>
        <time>2019-05-01T06:52:12Z</time>
      </trkpt>
      <trkpt lat="39.971360" lon="-6.505573">
        <ele>225.0</ele>
        <time>2019-05-01T06:52:31Z</time>
      </trkpt>
      <trkpt lat="39.971327" lon="-6.505329">
        <ele>224.8</ele>
        <time>2019-05-01T06:52:50Z</time>
      </trkpt>
      <trkpt lat="39.971288" lon="-6.505114">
        <ele>224.6</ele>
        <time>2019-05-01T06:53:07Z</time>
      </trkpt>
      <trkpt lat="39.971153" lon="-6.504630">
        <ele>225.5</ele>
        <time>2019-05-01T06:53:46Z</time>
      </trkpt>
      <trkpt lat="39.970972" lon="-6.504030">
        <ele>226.7</ele>
        <time>2019-05-01T06:54:36Z</time>
      </trkpt>
      <trkpt lat="39.970819" lon="-6.503575">
        <ele>227.0</ele>
        <time>2019-05-01T06:55:14Z</time>
      </trkpt>
      <trkpt lat="39.970766" lon="-6.503448">
        <ele>227.0</ele>
        <time>2019-05-01T06:55:25Z</time>
      </trkpt>
      <trkpt lat="39.970641" lon="-6.503309">
        <ele>226.9</ele>
        <time>2019-05-01T06:55:41Z</time>
      </trkpt>
      <trkpt lat="39.970532" lon="-6.503207">
        <ele>226.8</ele>
        <time>2019-05-01T06:55:55Z</time>
      </trkpt>
      <trkpt lat="39.970433" lon="-6.503170">
        <ele>226.7</ele>
        <time>2019-05-01T06:56:05Z</time>
      </trkpt>
      <trkpt lat="39.970353" lon="-6.503190">
        <ele>226.8</ele>
        <time>2019-05-01T06:56:13Z</time>
      </trkpt>
      <trkpt lat="39.970227" lon="-6.503287">
        <ele>226.9</ele>
        <time>2019-05-01T06:56:28Z</time>
      </trkpt>
      <trkpt lat="39.970027" lon="-6.503481">
        <ele>227.4</ele>
        <time>2019-05-01T06:56:53Z</time>
      </trkpt>
      <trkpt lat="39.969771" lon="-6.503742">
        <ele>228.0</ele>
        <time>2019-05-01T06:57:25Z</time>
      </trkpt>
      <trkpt lat="39.969554" lon="-6.503962">
        <ele>228.2</ele>
        <time>2019-05-01T06:57:53Z</time>
      </trkpt>
      <trkpt lat="39.969429" lon="-6.504070">
        <ele>228.2</ele>
        <time>2019-05-01T06:58:08Z</time>
      </trkpt>
      <trkpt lat="39.969322" lon="-6.504097">
        <ele>228.2</ele>
        <time>2019-05-01T06:58:19Z</time>
      </trkpt>
      <trkpt lat="39.969245" lon="-6.504099">
        <ele>228.1</ele>
        <time>2019-05-01T06:58:26Z</time>
      </trkpt>
      <trkpt lat="39.969207" lon="-6.504059">
        <ele>228.0</ele>
        <time>2019-05-01T06:58:31Z</time>
      </trkpt>
      <trkpt lat="39.969184" lon="-6.503945">
        <ele>228.0</ele>
        <time>2019-05-01T06:58:40Z</time>
      </trkpt>
      <trkpt lat="39.969160" lon="-6.503757">
        <ele>228.0</ele>
        <time>2019-05-01T06:58:55Z</time>
      </trkpt>
      <trkpt lat="39.969141" lon="-6.503461">
        <ele>227.9</ele>
        <time>2019-05-01T06:59:18Z</time>
      </trkpt>
      <trkpt lat="39.969127" lon="-6.502978">
        <ele>227.9</ele>
        <time>2019-05-01T06:59:55Z</time>
      </trkpt>
      <trkpt lat="39.969116" lon="-6.502485">
        <ele>228.0</ele>
        <time>2019-05-01T07:00:33Z</time>
      </trkpt>
      <trkpt lat="39.969097" lon="-6.501980">
        <ele>228.6</ele>
        <time>2019-05-01T07:01:11Z</time>
      </trkpt>
      <trkpt lat="39.969082" lon="-6.501356">
        <ele>228.3</ele>
        <time>2019-05-01T07:01:59Z</time>
      </trkpt>
      <trkpt lat="39.969069" lon="-6.500916">
        <ele>227.2</ele>
        <time>2019-05-01T07:02:33Z</time>
      </trkpt>
      <trkpt lat="39.969070" lon="-6.500601">
        <ele>227.0</ele>
        <time>2019-05-01T07:02:57Z</time>
      </trkpt>
      <trkpt lat="39.969065" lon="-6.500394">
        <ele>227.1</ele>
        <time>2019-05-01T07:03:13Z</time>
      </trkpt>
      <trkpt lat="39.969040" lon="-6.500323">
        <ele>227.1</ele>
        <time>2019-05-01T07:03:19Z</time>
      </trkpt>
      <trkpt lat="39.968883" lon="-6.500256">
        <ele>227.2</ele>
        <time>2019-05-01T07:03:36Z</time>
      </trkpt>
      <trkpt lat="39.968705" lon="-6.500190">
        <ele>227.4</ele>
        <time>2019-05-01T07:03:54Z</time>
      </trkpt>
      <trkpt lat="39.968550" lon="-6.500133">
        <ele>227.6</ele>
        <time>2019-05-01T07:04:10Z</time>
      </trkpt>
      <trkpt lat="39.968407" lon="-6.500082">
        <ele>227.8</ele>
        <time>2019-05-01T07:04:25Z</time>
      </trkpt>
      <trkpt lat="39.968325" lon="-6.500020">
        <ele>228.0</ele>
        <time>2019-05-01T07:04:35Z</time>
      </trkpt>
      <trkpt lat="39.968261" lon="-6.499781">
        <ele>227.9</ele>
        <time>2019-05-01T07:04:54Z</time>
      </trkpt>
      <trkpt lat="39.968206" lon="-6.499486">
        <ele>227.6</ele>
        <time>2019-05-01T07:05:17Z</time>
      </trkpt>
      <trkpt lat="39.968114" lon="-6.498981">
        <ele>227.5</ele>
        <time>2019-05-01T07:05:57Z</time>
      </trkpt>
      <trkpt lat="39.968020" lon="-6.498525">
        <ele>227.5</ele>
        <time>2019-05-01T07:06:33Z</time>
      </trkpt>
      <trkpt lat="39.967950" lon="-6.498164">
        <ele>227.7</ele>
        <time>2019-05-01T07:07:02Z</time>
      </trkpt>
      <trkpt lat="39.967889" lon="-6.497842">
        <ele>228.1</ele>
        <time>2019-05-01T07:07:27Z</time>
      </trkpt>
      <trkpt lat="39.967860" lon="-6.497685">
        <ele>228.2</ele>
        <time>2019-05-01T07:07:40Z</time>
      </trkpt>
      <trkpt lat="39.967711" lon="-6.497242">
        <ele>228.8</ele>
        <time>2019-05-01T07:08:17Z</time>
      </trkpt>
      <trkpt lat="39.967555" lon="-6.496756">
        <ele>229.8</ele>
        <time>2019-05-01T07:08:57Z</time>
      </trkpt>
      <trkpt lat="39.967420" lon="-6.496323">
        <ele>230.4</ele>
        <time>2019-05-01T07:09:33Z</time>
      </trkpt>
      <trkpt lat="39.967297" lon="-6.495917">
        <ele>230.9</ele>
        <time>2019-05-01T07:10:07Z</time>
      </trkpt>
      <trkpt lat="39.967134" lon="-6.495364">
        <ele>231.0</ele>
        <time>2019-05-01T07:10:52Z</time>
      </trkpt>
      <trkpt lat="39.966988" lon="-6.494896">
        <ele>231.1</ele>
        <time>2019-05-01T07:11:31Z</time>
      </trkpt>
      <trkpt lat="39.966868" lon="-6.494534">
        <ele>231.5</ele>
        <time>2019-05-01T07:12:01Z</time>
      </trkpt>
      <trkpt lat="39.966711" lon="-6.494125">
        <ele>232.0</ele>
        <time>2019-05-01T07:12:36Z</time>
      </trkpt>
      <trkpt lat="39.966572" lon="-6.493841">
        <ele>232.2</ele>
        <time>2019-05-01T07:13:02Z</time>
      </trkpt>
      <trkpt lat="39.966440" lon="-6.493727">
        <ele>232.1</ele>
        <time>2019-05-01T07:13:18Z</time>
      </trkpt>
      <trkpt lat="39.966463" lon="-6.493523">
        <ele>232.3</ele>
        <time>2019-05-01T07:13:34Z</time>
      </trkpt>
      <trkpt lat="39.966522" lon="-6.492791">
        <ele>232.3</ele>
        <time>2019-05-01T07:14:30Z</time>
      </trkpt>
      <trkpt lat="39.966538" lon="-6.492520">
        <ele>232.2</ele>
        <time>2019-05-01T07:14:51Z</time>
      </trkpt>
      <trkpt lat="39.966041" lon="-6.492448">
        <ele>233.0</ele>
        <time>2019-05-01T07:15:41Z</time>
      </trkpt>
      <trkpt lat="39.966079" lon="-6.491858">
        <ele>235.3</ele>
        <time>2019-05-01T07:16:27Z</time>
      </trkpt>
      <trkpt lat="39.966092" lon="-6.491701">
        <ele>235.9</ele>
        <time>2019-05-01T07:16:39Z</time>
      </trkpt>
      <trkpt lat="39.966106" lon="-6.491491">
        <ele>235.7</ele>
        <time>2019-05-01T07:16:55Z</time>
      </trkpt>
    </trkseg>
  </trk>
</gpx>
